createdAt,value
2023-04-30T00:01:27.945Z,16.30
2023-04-30T00:03:57.302Z,16.13
2023-04-30T00:06:28.384Z,16.23
2023-04-30T00:08:58.958Z,15.52
2023-04-30T00:11:28.027Z,16.30
2023-04-30T00:13:57.151Z,16.80
2023-04-30T00:16:28.660Z,15.27
2023-04-30T00:18:57.123Z,15.63
2023-04-30T00:21:37.620Z,15.20
2023-04-30T00:24:07.961Z,15.13
2023-04-30T00:26:36.360Z,14.27
2023-04-30T00:29:05.278Z,14.02
2023-04-30T00:31:37.386Z,13.63
2023-04-30T00:34:06.191Z,14.85
2023-04-30T00:36:34.666Z,14.02
2023-04-30T00:39:03.193Z,12.77
2023-04-30T00:41:33.940Z,13.55
2023-04-30T00:44:04.860Z,14.02
2023-04-30T00:46:33.699Z,13.98
2023-04-30T00:49:05.267Z,13.50
2023-04-30T00:51:34.781Z,13.23
2023-04-30T00:54:04.176Z,13.27
2023-04-30T00:56:34.450Z,13.88
2023-04-30T00:59:03.210Z,12.55
2023-04-30T01:01:32.102Z,13.35
2023-04-30T01:04:01.216Z,13.88
2023-04-30T01:06:30.111Z,13.65
2023-04-30T01:08:59.656Z,13.45
2023-04-30T01:11:47.024Z,11.93
2023-04-30T01:17:18.988Z,14.18
2023-04-30T01:19:48.051Z,13.75
2023-04-30T01:22:32.232Z,14.90
2023-04-30T01:25:22.792Z,14.07
2023-04-30T01:28:11.908Z,13.43
2023-04-30T01:30:45.561Z,14.32
2023-04-30T01:33:14.269Z,13.30
2023-04-30T01:36:13.185Z,12.98
2023-04-30T01:39:09.987Z,14.45
2023-04-30T01:41:47.111Z,13.07
2023-04-30T01:44:39.853Z,14.30
2023-04-30T01:47:19.289Z,14.23
2023-04-30T01:49:59.175Z,12.60
2023-04-30T01:52:37.921Z,11.55
2023-04-30T01:55:13.089Z,12.70
2023-04-30T01:57:44.747Z,12.35
2023-04-30T02:00:21.354Z,13.45
2023-04-30T02:02:50.314Z,12.20
2023-04-30T02:05:19.004Z,12.40
2023-04-30T02:07:49.627Z,11.88
2023-04-30T02:10:19.721Z,11.52
2023-04-30T02:12:48.608Z,11.85
2023-04-30T02:15:20.094Z,13.13
2023-04-30T02:17:48.734Z,11.20
2023-04-30T02:20:17.373Z,11.93
2023-04-30T02:22:46.069Z,11.95
2023-04-30T02:25:15.436Z,12.20
2023-04-30T02:27:44.492Z,11.77
2023-04-30T02:30:13.728Z,12.45
2023-04-30T02:32:44.741Z,11.93
2023-04-30T02:35:14.848Z,12.70
2023-04-30T02:37:43.538Z,13.00
2023-04-30T02:40:14.969Z,13.93
2023-04-30T02:42:43.912Z,14.07
2023-04-30T02:45:12.767Z,13.65
2023-04-30T02:47:41.480Z,14.80
2023-04-30T02:50:13.071Z,13.50
2023-04-30T02:52:41.929Z,14.60
2023-04-30T02:55:11.494Z,15.75
2023-04-30T02:57:40.421Z,15.20
2023-04-30T03:00:10.152Z,15.85
2023-04-30T03:02:38.809Z,16.10
2023-04-30T03:05:08.833Z,16.67
2023-04-30T03:07:39.505Z,17.25
2023-04-30T03:10:10.211Z,15.45
2023-04-30T03:12:39.508Z,16.75
2023-04-30T03:15:10.071Z,16.67
2023-04-30T03:17:40.115Z,16.80
2023-04-30T03:20:10.291Z,16.63
2023-04-30T03:22:40.466Z,17.75
2023-04-30T03:25:09.975Z,17.30
2023-04-30T03:27:38.455Z,17.02
2023-04-30T03:30:08.426Z,17.73
2023-04-30T03:32:41.273Z,17.20
2023-04-30T03:35:10.720Z,15.50
2023-04-30T03:37:41.789Z,16.85
2023-04-30T03:40:11.191Z,18.70
2023-04-30T03:42:39.939Z,18.45
2023-04-30T03:45:09.659Z,17.83
2023-04-30T03:47:38.434Z,17.83
2023-04-30T03:50:08.173Z,16.10
2023-04-30T03:52:37.563Z,13.48
2023-04-30T03:55:08.874Z,13.27
2023-04-30T03:57:38.198Z,12.90
2023-04-30T04:00:11.394Z,13.30
2023-04-30T04:02:40.271Z,12.43
2023-04-30T04:05:09.464Z,13.82
2023-04-30T04:07:38.382Z,12.10
2023-04-30T04:10:10.197Z,13.45
2023-04-30T04:12:38.684Z,12.10
2023-04-30T04:15:08.596Z,12.13
2023-04-30T04:17:39.428Z,12.40
2023-04-30T04:20:10.915Z,11.10
2023-04-30T04:22:41.680Z,10.93
2023-04-30T04:25:14.031Z,9.00
2023-04-30T04:27:42.884Z,8.80
2023-04-30T04:30:12.378Z,8.57
2023-04-30T04:32:47.073Z,8.93
2023-04-30T04:35:16.112Z,8.50
2023-04-30T04:37:44.609Z,8.15
2023-04-30T04:40:14.716Z,8.30
2023-04-30T04:42:43.330Z,9.07
2023-04-30T04:45:12.265Z,11.32
2023-04-30T04:47:41.570Z,12.63
2023-04-30T04:50:10.762Z,11.68
2023-04-30T04:52:39.330Z,11.35
2023-04-30T04:55:08.514Z,9.73
2023-04-30T04:57:38.998Z,8.73
2023-04-30T05:00:10.142Z,8.02
2023-04-30T05:02:38.848Z,8.00
2023-04-30T05:05:08.333Z,6.97
2023-04-30T05:07:36.985Z,5.38
2023-04-30T05:10:05.944Z,5.32
2023-04-30T05:12:39.970Z,4.93
2023-04-30T05:15:09.915Z,4.90
2023-04-30T05:17:38.980Z,5.30
2023-04-30T05:20:09.056Z,5.57
2023-04-30T05:22:37.542Z,6.28
2023-04-30T05:25:06.888Z,11.05
2023-04-30T05:27:36.433Z,9.55
2023-04-30T05:30:07.744Z,11.43
2023-04-30T05:32:36.705Z,8.30
2023-04-30T05:35:05.414Z,8.75
2023-04-30T05:37:34.030Z,7.75
2023-04-30T05:40:02.601Z,8.50
2023-04-30T05:42:30.975Z,7.22
2023-04-30T05:44:59.584Z,8.15
2023-04-30T05:47:29.836Z,6.28
2023-04-30T05:50:04.640Z,4.10
2023-04-30T05:52:33.423Z,4.38
2023-04-30T05:55:02.476Z,3.53
2023-04-30T05:57:31.311Z,3.20
2023-04-30T06:00:00.010Z,2.73
2023-04-30T06:02:30.270Z,4.40
2023-04-30T06:04:59.620Z,2.30
2023-04-30T06:07:28.523Z,3.23
2023-04-30T06:09:57.737Z,2.40
2023-04-30T06:12:26.574Z,2.83
2023-04-30T06:14:55.559Z,3.10
2023-04-30T06:17:24.005Z,3.30
2023-04-30T06:19:54.426Z,3.17
2023-04-30T06:22:23.297Z,3.60
2023-04-30T06:24:54.862Z,3.03
2023-04-30T06:27:23.644Z,3.03
2023-04-30T06:29:52.365Z,3.63
2023-04-30T06:32:21.128Z,4.00
2023-04-30T06:34:49.610Z,3.20
2023-04-30T06:37:19.692Z,4.18
2023-04-30T06:39:48.381Z,3.50
2023-04-30T06:42:17.021Z,3.53
2023-04-30T06:44:46.167Z,3.40
2023-04-30T06:47:15.146Z,3.60
2023-04-30T06:49:43.775Z,3.80
2023-04-30T06:52:12.299Z,3.40
2023-04-30T06:54:43.059Z,3.28
2023-04-30T06:57:12.475Z,3.90
2023-04-30T06:59:40.816Z,3.30
2023-04-30T07:02:09.632Z,4.18
2023-04-30T07:04:38.130Z,3.75
2023-04-30T07:07:06.512Z,5.40
2023-04-30T07:09:37.506Z,3.67
2023-04-30T07:12:07.330Z,3.45
2023-04-30T07:14:35.729Z,3.92
2023-04-30T07:17:04.019Z,3.00
2023-04-30T07:19:32.680Z,4.43
2023-04-30T07:22:01.173Z,2.90
2023-04-30T07:24:29.717Z,4.10
2023-04-30T07:27:03.012Z,3.83
2023-04-30T07:29:32.949Z,4.00
2023-04-30T07:32:01.394Z,7.03
2023-04-30T07:34:29.918Z,5.00
2023-04-30T07:36:58.290Z,5.27
2023-04-30T07:39:26.698Z,4.88
2023-04-30T07:41:55.351Z,6.10
2023-04-30T07:44:23.871Z,5.53
2023-04-30T07:46:53.745Z,5.57
2023-04-30T07:49:22.407Z,4.07
2023-04-30T07:51:51.086Z,4.47
2023-04-30T07:54:19.364Z,4.30
2023-04-30T07:56:49.021Z,3.90
2023-04-30T07:59:17.832Z,4.20
2023-04-30T08:01:46.319Z,4.80
2023-04-30T08:04:16.365Z,4.80
2023-04-30T08:06:44.853Z,5.47
2023-04-30T08:09:13.356Z,4.60
2023-04-30T08:11:41.815Z,5.40
2023-04-30T08:14:10.340Z,4.80
2023-04-30T08:16:38.725Z,4.78
2023-04-30T08:19:07.149Z,4.25
2023-04-30T08:21:41.028Z,4.97
2023-04-30T08:24:09.731Z,4.97
2023-04-30T08:26:38.269Z,4.60
2023-04-30T08:29:08.412Z,5.03
2023-04-30T08:31:37.471Z,4.60
2023-04-30T08:34:05.969Z,4.43
2023-04-30T08:36:34.171Z,4.78
2023-04-30T08:39:09.759Z,4.95
2023-04-30T08:41:40.695Z,5.35
2023-04-30T08:44:12.104Z,5.45
2023-04-30T08:46:41.736Z,5.35
2023-04-30T08:49:10.153Z,5.00
2023-04-30T08:51:38.789Z,4.50
2023-04-30T08:54:11.823Z,4.20
2023-04-30T08:56:40.280Z,4.07
2023-04-30T08:59:08.842Z,3.30
2023-04-30T09:01:37.156Z,3.60
2023-04-30T09:04:06.567Z,3.77
2023-04-30T09:06:34.991Z,3.40
2023-04-30T09:09:12.761Z,2.93
2023-04-30T09:11:41.939Z,2.93
2023-04-30T09:14:10.428Z,3.40
2023-04-30T09:16:49.156Z,3.70
2023-04-30T09:19:27.159Z,4.00
2023-04-30T09:21:55.702Z,4.10
2023-04-30T09:24:33.171Z,4.13
2023-04-30T09:27:17.687Z,3.33
2023-04-30T09:29:46.330Z,2.77
2023-04-30T09:32:14.709Z,3.20
2023-04-30T09:34:43.487Z,3.03
2023-04-30T09:37:12.459Z,3.33
2023-04-30T09:39:52.532Z,3.43
2023-04-30T09:42:21.251Z,3.63
2023-04-30T09:44:50.111Z,2.77
2023-04-30T09:47:20.469Z,3.07
2023-04-30T09:49:52.357Z,3.10
2023-04-30T09:52:21.674Z,2.90
2023-04-30T09:54:51.419Z,2.97
2023-04-30T09:57:24.337Z,3.10
2023-04-30T09:59:55.159Z,2.50
2023-04-30T10:02:24.866Z,3.00
2023-04-30T10:04:57.213Z,3.83
2023-04-30T10:07:31.773Z,3.40
2023-04-30T10:10:06.384Z,4.03
2023-04-30T10:12:41.392Z,3.00
2023-04-30T10:15:16.314Z,2.73
2023-04-30T10:17:51.393Z,3.03
2023-04-30T10:20:22.653Z,2.60
2023-04-30T10:22:51.959Z,2.60
2023-04-30T10:25:23.103Z,3.00
2023-04-30T10:27:51.692Z,2.50
2023-04-30T10:30:19.928Z,2.63
2023-04-30T10:32:57.513Z,2.53
2023-04-30T10:35:29.965Z,2.50
2023-04-30T10:38:09.059Z,2.50
2023-04-30T10:40:39.273Z,2.50
2023-04-30T10:43:07.793Z,3.07
2023-04-30T10:45:37.914Z,2.70
2023-04-30T10:48:07.788Z,2.53
2023-04-30T10:50:45.013Z,2.60
2023-04-30T10:53:16.987Z,2.37
2023-04-30T10:55:53.221Z,2.30
2023-04-30T10:58:31.010Z,2.20
2023-04-30T11:01:09.202Z,2.27
2023-04-30T11:03:38.578Z,2.60
2023-04-30T11:06:12.765Z,2.60
2023-04-30T11:08:48.297Z,3.00
2023-04-30T11:11:22.124Z,2.80
2023-04-30T11:14:00.749Z,3.10
2023-04-30T11:16:31.638Z,3.20
2023-04-30T11:19:09.502Z,3.13
2023-04-30T11:21:42.265Z,2.40
2023-04-30T11:24:10.551Z,2.07
2023-04-30T11:27:10.803Z,3.10
2023-04-30T11:29:42.671Z,5.90
2023-04-30T11:32:11.072Z,2.60
2023-04-30T11:34:39.623Z,3.23
2023-04-30T11:37:17.064Z,2.53
2023-04-30T11:39:45.581Z,3.60
2023-04-30T11:42:19.342Z,3.07
2023-04-30T11:44:47.914Z,3.23
2023-04-30T11:47:16.576Z,2.07
2023-04-30T11:49:45.077Z,2.60
2023-04-30T11:52:14.850Z,1.90
2023-04-30T11:54:43.104Z,2.27
2023-04-30T11:57:11.484Z,2.10
2023-04-30T11:59:44.342Z,2.10
2023-04-30T12:02:16.721Z,2.10
2023-04-30T12:04:45.302Z,3.37
2023-04-30T12:07:13.673Z,2.57
2023-04-30T12:09:55.171Z,2.10
2023-04-30T12:12:30.541Z,1.83
2023-04-30T12:15:00.277Z,2.23
2023-04-30T12:17:35.734Z,2.20
2023-04-30T12:20:05.277Z,3.40
2023-04-30T12:22:33.764Z,2.30
2023-04-30T12:25:06.959Z,2.23
2023-04-30T12:27:36.600Z,1.80
2023-04-30T12:30:09.729Z,2.00
2023-04-30T12:32:42.719Z,2.53
2023-04-30T12:35:15.565Z,1.93
2023-04-30T12:37:45.626Z,1.83
2023-04-30T12:40:15.235Z,2.77
2023-04-30T12:42:44.796Z,1.80
2023-04-30T12:45:17.972Z,5.10
2023-04-30T12:47:46.303Z,1.60
2023-04-30T12:50:14.646Z,2.13
2023-04-30T12:52:46.317Z,2.20
2023-04-30T12:55:19.738Z,2.17
2023-04-30T12:58:13.372Z,2.00
2023-04-30T13:00:51.988Z,2.27
2023-04-30T13:03:22.430Z,1.70
2023-04-30T13:05:55.816Z,1.87
2023-04-30T13:08:24.253Z,1.63
2023-04-30T13:10:52.455Z,1.80
2023-04-30T13:13:21.320Z,2.30
2023-04-30T13:15:51.101Z,2.77
2023-04-30T13:18:19.430Z,1.73
2023-04-30T13:20:47.759Z,1.73
2023-04-30T13:23:16.064Z,1.70
2023-04-30T13:25:44.314Z,2.00
2023-04-30T13:28:18.639Z,1.90
2023-04-30T13:30:46.824Z,2.20
2023-04-30T13:33:16.467Z,2.00
2023-04-30T13:35:46.585Z,2.60
2023-04-30T13:38:14.797Z,2.63
2023-04-30T13:40:43.242Z,2.10
2023-04-30T13:43:11.480Z,1.80
2023-04-30T13:45:39.712Z,2.00
2023-04-30T13:48:08.722Z,1.40
2023-04-30T13:50:38.892Z,1.77
2023-04-30T13:53:07.082Z,1.60
2023-04-30T13:55:35.650Z,1.70
2023-04-30T13:58:03.939Z,1.73
2023-04-30T14:00:32.337Z,1.90
2023-04-30T14:03:00.955Z,1.70
2023-04-30T14:05:29.349Z,2.10
2023-04-30T14:07:59.164Z,1.70
2023-04-30T14:10:28.172Z,2.50
2023-04-30T14:12:56.362Z,2.43
2023-04-30T14:15:24.656Z,1.60
2023-04-30T14:17:53.099Z,1.53
2023-04-30T14:20:24.937Z,2.40
2023-04-30T14:22:53.266Z,2.57
2023-04-30T14:25:23.008Z,2.63
2023-04-30T14:27:51.172Z,2.80
2023-04-30T14:30:22.369Z,2.90
2023-04-30T14:32:56.987Z,2.80
2023-04-30T14:35:25.355Z,1.90
2023-04-30T14:37:53.530Z,1.60
2023-04-30T14:40:23.415Z,1.80
2023-04-30T14:42:51.834Z,2.20
2023-04-30T14:45:20.028Z,2.27
2023-04-30T14:47:48.483Z,2.50
2023-04-30T14:50:16.836Z,1.93
2023-04-30T14:52:45.119Z,1.87
2023-04-30T14:55:13.392Z,2.40
2023-04-30T14:57:43.190Z,2.37
2023-04-30T15:00:16.129Z,2.47
2023-04-30T15:02:44.403Z,2.80
2023-04-30T15:05:12.974Z,4.03
2023-04-30T15:07:41.197Z,2.57
2023-04-30T15:10:10.586Z,2.87
2023-04-30T15:12:43.632Z,1.90
2023-04-30T15:15:12.945Z,3.33
2023-04-30T15:17:41.472Z,2.20
2023-04-30T15:20:10.671Z,1.90
2023-04-30T15:22:38.913Z,2.23
2023-04-30T15:25:07.976Z,1.90
2023-04-30T15:27:36.860Z,3.97
2023-04-30T15:30:09.509Z,2.97
2023-04-30T15:32:40.490Z,2.20
2023-04-30T15:35:09.576Z,1.80
2023-04-30T15:37:37.919Z,1.90
2023-04-30T15:40:07.046Z,3.23
2023-04-30T15:42:35.714Z,2.20
2023-04-30T15:45:04.056Z,3.70
2023-04-30T15:47:33.900Z,2.00
2023-04-30T15:50:05.013Z,2.60
2023-04-30T15:52:33.203Z,1.97
2023-04-30T15:55:02.219Z,2.60
2023-04-30T15:57:30.553Z,2.60
2023-04-30T16:00:04.399Z,2.50
2023-04-30T16:02:34.207Z,2.10
2023-04-30T16:05:05.106Z,2.60
2023-04-30T16:07:34.077Z,2.50
2023-04-30T16:10:02.906Z,1.87
2023-04-30T16:12:31.154Z,1.60
2023-04-30T16:14:59.398Z,1.60
2023-04-30T16:17:27.753Z,1.90
2023-04-30T16:19:57.572Z,2.60
2023-04-30T16:22:27.435Z,2.07
2023-04-30T16:24:58.865Z,2.27
2023-04-30T16:27:29.685Z,2.00
2023-04-30T16:29:58.347Z,2.00
2023-04-30T16:32:29.930Z,2.37
2023-04-30T16:35:02.244Z,2.13
2023-04-30T16:37:31.164Z,4.13
2023-04-30T16:40:00.204Z,1.80
2023-04-30T16:42:30.119Z,2.97
2023-04-30T16:44:58.488Z,2.30
2023-04-30T16:47:26.839Z,5.90
2023-04-30T16:49:55.715Z,4.70
2023-04-30T16:52:27.163Z,3.90
2023-04-30T16:54:58.107Z,4.70
2023-04-30T16:57:26.491Z,2.50
2023-04-30T16:59:54.870Z,3.10
2023-04-30T17:02:23.262Z,18.10
2023-04-30T17:04:52.424Z,23.67
2023-04-30T17:07:20.740Z,23.33
2023-04-30T17:09:50.680Z,6.60
2023-04-30T17:12:19.021Z,3.20
2023-04-30T17:14:47.192Z,2.70
2023-04-30T17:17:15.800Z,2.38
2023-04-30T17:19:44.063Z,3.25
2023-04-30T17:22:13.140Z,3.10
2023-04-30T17:24:41.485Z,3.58
2023-04-30T17:27:11.148Z,3.72
2023-04-30T17:29:39.536Z,3.55
2023-04-30T17:32:10.461Z,7.38
2023-04-30T17:34:39.179Z,5.00
2023-04-30T17:37:07.391Z,8.65
2023-04-30T17:39:35.772Z,8.10
2023-04-30T17:42:04.779Z,7.43
2023-04-30T17:44:34.629Z,7.60
2023-04-30T17:47:03.478Z,8.13
2023-04-30T17:49:31.653Z,11.50
2023-04-30T17:52:01.247Z,12.80
2023-04-30T17:54:30.619Z,19.55
2023-04-30T17:56:59.661Z,16.63
2023-04-30T17:59:29.912Z,18.48
2023-04-30T18:01:59.741Z,22.98
2023-04-30T18:04:28.263Z,27.35
2023-04-30T18:06:59.088Z,25.77
2023-04-30T18:09:27.401Z,23.50
2023-04-30T18:11:57.031Z,26.50
2023-04-30T18:14:26.407Z,29.80
2023-04-30T18:16:54.890Z,29.45
2023-04-30T18:19:24.701Z,23.05
2023-04-30T18:21:53.231Z,23.38
2023-04-30T18:24:28.480Z,28.52
2023-04-30T18:26:57.080Z,35.00
2023-04-30T18:29:25.280Z,39.95
2023-04-30T18:31:53.545Z,37.38
2023-04-30T18:34:21.737Z,37.10
2023-04-30T18:36:51.506Z,46.08
2023-04-30T18:39:23.001Z,68.40
2023-04-30T18:41:52.062Z,76.55
2023-04-30T18:44:29.373Z,71.82
2023-04-30T18:47:00.360Z,71.47
2023-04-30T18:49:29.157Z,79.90
2023-04-30T18:52:00.594Z,88.15
2023-04-30T18:54:28.821Z,81.20
2023-04-30T18:56:57.083Z,85.38
2023-04-30T18:59:29.908Z,94.70
2023-04-30T19:01:58.191Z,155.18
2023-04-30T19:04:31.709Z,120.47
2023-04-30T19:07:01.271Z,123.63
2023-04-30T19:09:33.375Z,124.10
2023-04-30T19:12:02.270Z,116.05
2023-04-30T19:14:30.512Z,113.97
2023-04-30T19:17:00.304Z,105.15
2023-04-30T19:19:28.892Z,117.15
2023-04-30T19:21:57.405Z,142.65
2023-04-30T19:24:27.492Z,224.82
2023-04-30T19:26:56.513Z,226.07
2023-04-30T19:29:25.998Z,221.60
2023-04-30T19:31:55.133Z,153.77
2023-04-30T19:34:27.752Z,153.68
2023-04-30T19:36:55.991Z,198.55
2023-04-30T19:39:24.267Z,149.25
2023-04-30T19:41:54.038Z,166.02
2023-04-30T19:44:22.249Z,156.52
2023-04-30T19:46:51.237Z,153.50
2023-04-30T19:49:26.034Z,147.23
2023-04-30T19:51:57.977Z,150.57
2023-04-30T19:54:26.263Z,133.85
2023-04-30T19:56:56.020Z,109.72
2023-04-30T19:59:26.855Z,95.60
2023-04-30T20:01:55.158Z,120.68
2023-04-30T20:04:23.532Z,109.65
2023-04-30T20:06:56.920Z,120.15
2023-04-30T20:09:28.034Z,210.45
2023-04-30T20:11:57.884Z,223.43
2023-04-30T20:14:26.347Z,211.10
2023-04-30T20:16:56.426Z,181.88
2023-04-30T20:19:25.260Z,161.73
2023-04-30T20:21:53.737Z,202.75
2023-04-30T20:24:22.732Z,207.82
2023-04-30T20:26:51.068Z,178.40
2023-04-30T20:29:23.143Z,145.80
2023-04-30T20:31:52.019Z,127.63
2023-04-30T20:34:20.507Z,118.05
2023-04-30T20:36:55.260Z,123.32
2023-04-30T20:39:24.337Z,131.57
2023-04-30T20:41:53.369Z,146.23
2023-04-30T20:44:23.102Z,140.80
2023-04-30T20:46:51.436Z,121.88
2023-04-30T20:49:19.767Z,124.78
2023-04-30T20:51:48.064Z,132.45
2023-04-30T20:54:16.389Z,130.00
2023-04-30T20:56:46.783Z,125.30
2023-04-30T20:59:15.415Z,140.93
2023-04-30T21:01:45.423Z,135.75
2023-04-30T21:04:13.742Z,140.80
2023-04-30T21:06:42.638Z,173.10
2023-04-30T21:09:12.507Z,166.23
2023-04-30T21:11:41.163Z,140.63
2023-04-30T21:14:09.901Z,139.13
2023-04-30T21:16:38.203Z,147.73
2023-04-30T21:19:08.010Z,157.63
2023-04-30T21:21:39.058Z,239.90
2023-04-30T21:24:08.852Z,220.45
2023-04-30T21:26:39.748Z,211.32
2023-04-30T21:29:08.124Z,204.98
2023-04-30T21:31:38.296Z,210.20
2023-04-30T21:34:08.110Z,191.02
2023-04-30T21:36:37.547Z,252.77
2023-04-30T21:39:05.853Z,213.40
2023-04-30T21:41:34.170Z,190.65
2023-04-30T21:44:02.647Z,197.57
2023-04-30T21:46:31.084Z,187.25
2023-04-30T21:48:59.589Z,181.27
2023-04-30T21:51:29.340Z,172.93
2023-04-30T21:53:57.685Z,155.40
2023-04-30T21:56:26.217Z,155.95
2023-04-30T21:58:54.561Z,154.80
2023-04-30T22:01:24.491Z,166.93
2023-04-30T22:03:52.777Z,187.43
2023-04-30T22:06:21.244Z,200.77
2023-04-30T22:08:50.921Z,203.30
2023-04-30T22:11:19.176Z,202.68
2023-04-30T22:13:47.383Z,181.80
2023-04-30T22:16:15.701Z,194.00
2023-04-30T22:18:43.982Z,181.38
2023-04-30T22:21:12.253Z,196.05
2023-04-30T22:23:40.732Z,197.05
2023-04-30T22:26:11.477Z,194.50
2023-04-30T22:28:39.766Z,179.55
2023-04-30T22:31:08.059Z,172.68
2023-04-30T22:33:37.668Z,175.73
2023-04-30T22:36:06.722Z,170.65
2023-04-30T22:38:35.454Z,176.98
2023-04-30T22:41:04.796Z,179.98
2023-04-30T22:43:35.117Z,179.98
2023-04-30T22:46:03.516Z,180.60
2023-04-30T22:48:31.972Z,172.07
2023-04-30T22:51:00.271Z,152.65
2023-04-30T22:53:29.337Z,156.80
2023-04-30T22:55:57.618Z,154.15
2023-04-30T22:58:25.907Z,148.10
2023-04-30T23:00:55.735Z,146.20
2023-04-30T23:03:23.980Z,149.65
2023-04-30T23:05:52.276Z,152.18
2023-04-30T23:08:20.572Z,151.30
2023-04-30T23:10:49.319Z,149.63
2023-04-30T23:13:18.448Z,146.88
2023-04-30T23:15:46.714Z,144.75
2023-04-30T23:18:16.357Z,148.55
2023-04-30T23:20:44.645Z,156.55
2023-04-30T23:23:12.906Z,167.95
2023-04-30T23:25:41.405Z,176.10
2023-04-30T23:28:09.648Z,171.57
2023-04-30T23:30:40.100Z,164.23
2023-04-30T23:33:08.545Z,154.95
2023-04-30T23:35:38.228Z,148.95
2023-04-30T23:38:06.462Z,144.55
2023-04-30T23:40:35.305Z,142.48
2023-04-30T23:43:03.627Z,135.23
2023-04-30T23:45:32.395Z,138.48
2023-04-30T23:48:00.781Z,136.10
2023-04-30T23:50:29.098Z,139.80
2023-04-30T23:52:58.754Z,141.65
2023-04-30T23:55:27.255Z,137.38
2023-04-30T23:57:55.492Z,142.52
